sensor_id;sensor_type;location;lat;lon;timestamp;temperature;humidity
30063;DHT22;16889;67.864;24.990;2024-01-30T00:01:21;0.20;99.90
30063;DHT22;16889;67.864;24.990;2024-01-30T00:06:07;0.20;99.90
30063;DHT22;16889;67.864;24.990;2024-01-30T00:10:53;0.10;99.90
30063;DHT22;16889;67.864;24.990;2024-01-30T00:15:39;0.00;99.90
30063;DHT22;16889;67.864;24.990;2024-01-30T00:20:25;-0.10;99.90
30063;DHT22;16889;67.864;24.990;2024-01-30T00:25:11;0.00;99.90
30063;DHT22;16889;67.864;24.990;2024-01-30T00:29:57;0.00;99.90
30063;DHT22;16889;67.864;24.990;2024-01-30T00:34:43;0.00;99.90
30063;DHT22;16889;67.864;24.990;2024-01-30T00:39:30;-0.10;99.90
30063;DHT22;16889;67.864;24.990;2024-01-30T00:44:16;-0.10;99.90
30063;DHT22;16889;67.864;24.990;2024-01-30T00:49:02;-0.20;99.90
30063;DHT22;16889;67.864;24.990;2024-01-30T00:53:48;-0.20;99.90
30063;DHT22;16889;67.864;24.990;2024-01-30T00:58:34;-0.20;99.90
30063;DHT22;16889;67.864;24.990;2024-01-30T01:03:21;-0.20;99.90
30063;DHT22;16889;67.864;24.990;2024-01-30T01:08:07;-0.10;99.90
30063;DHT22;16889;67.864;24.990;2024-01-30T01:12:53;-0.10;99.90
30063;DHT22;16889;67.864;24.990;2024-01-30T01:17:39;-0.10;99.90
30063;DHT22;16889;67.864;24.990;2024-01-30T01:22:25;-0.20;99.90
30063;DHT22;16889;67.864;24.990;2024-01-30T01:27:11;-0.20;99.90
30063;DHT22;16889;67.864;24.990;2024-01-30T01:31:58;-0.20;99.90
30063;DHT22;16889;67.864;24.990;2024-01-30T01:36:44;-0.20;99.90
30063;DHT22;16889;67.864;24.990;2024-01-30T01:41:33;0.00;99.90
30063;DHT22;16889;67.864;24.990;2024-01-30T01:46:19;0.00;99.90
30063;DHT22;16889;67.864;24.990;2024-01-30T01:51:05;-0.10;99.90
30063;DHT22;16889;67.864;24.990;2024-01-30T01:55:52;-0.10;99.90
30063;DHT22;16889;67.864;24.990;2024-01-30T02:00:39;-0.10;99.90
30063;DHT22;16889;67.864;24.990;2024-01-30T02:05:27;-0.20;99.90
30063;DHT22;16889;67.864;24.990;2024-01-30T02:10:13;-0.30;99.90
30063;DHT22;16889;67.864;24.990;2024-01-30T02:14:59;-0.30;99.90
30063;DHT22;16889;67.864;24.990;2024-01-30T02:19:45;-0.50;99.90
30063;DHT22;16889;67.864;24.990;2024-01-30T02:24:31;-0.50;99.90
30063;DHT22;16889;67.864;24.990;2024-01-30T02:29:17;-0.50;99.90
30063;DHT22;16889;67.864;24.990;2024-01-30T02:34:03;-0.60;99.90
30063;DHT22;16889;67.864;24.990;2024-01-30T02:38:48;-0.60;99.90
30063;DHT22;16889;67.864;24.990;2024-01-30T02:43:34;-0.60;99.90
30063;DHT22;16889;67.864;24.990;2024-01-30T02:48:20;-0.60;99.90
30063;DHT22;16889;67.864;24.990;2024-01-30T02:53:07;-0.60;99.90
30063;DHT22;16889;67.864;24.990;2024-01-30T02:57:52;-0.70;99.90
30063;DHT22;16889;67.864;24.990;2024-01-30T03:02:38;-0.60;99.90
30063;DHT22;16889;67.864;24.990;2024-01-30T03:07:25;-0.60;99.90
30063;DHT22;16889;67.864;24.990;2024-01-30T03:12:11;-0.60;99.90
30063;DHT22;16889;67.864;24.990;2024-01-30T03:16:58;-0.70;99.90
30063;DHT22;16889;67.864;24.990;2024-01-30T03:21:44;-0.80;99.90
30063;DHT22;16889;67.864;24.990;2024-01-30T03:26:30;-0.80;99.90
30063;DHT22;16889;67.864;24.990;2024-01-30T03:31:16;-0.90;99.90
30063;DHT22;16889;67.864;24.990;2024-01-30T03:36:06;-0.90;99.90
30063;DHT22;16889;67.864;24.990;2024-01-30T03:40:52;-0.90;99.90
30063;DHT22;16889;67.864;24.990;2024-01-30T03:45:38;-0.90;99.90
30063;DHT22;16889;67.864;24.990;2024-01-30T03:50:24;-0.90;99.90
30063;DHT22;16889;67.864;24.990;2024-01-30T03:55:10;-0.90;99.90
30063;DHT22;16889;67.864;24.990;2024-01-30T03:59:56;-0.80;99.90
30063;DHT22;16889;67.864;24.990;2024-01-30T04:04:42;-0.80;99.90
30063;DHT22;16889;67.864;24.990;2024-01-30T04:09:28;-0.90;99.90
30063;DHT22;16889;67.864;24.990;2024-01-30T04:14:14;-0.80;99.90
30063;DHT22;16889;67.864;24.990;2024-01-30T04:19:00;-0.80;99.90
30063;DHT22;16889;67.864;24.990;2024-01-30T04:23:46;-0.80;99.90
30063;DHT22;16889;67.864;24.990;2024-01-30T04:28:32;-0.80;99.90
30063;DHT22;16889;67.864;24.990;2024-01-30T04:33:18;-0.80;99.90
30063;DHT22;16889;67.864;24.990;2024-01-30T04:38:04;-0.80;99.90
30063;DHT22;16889;67.864;24.990;2024-01-30T04:42:50;-0.80;99.90
30063;DHT22;16889;67.864;24.990;2024-01-30T04:47:36;-0.90;99.90
30063;DHT22;16889;67.864;24.990;2024-01-30T04:52:22;-1.00;99.90
30063;DHT22;16889;67.864;24.990;2024-01-30T04:57:08;-1.00;99.90
30063;DHT22;16889;67.864;24.990;2024-01-30T05:01:57;-0.90;99.90
30063;DHT22;16889;67.864;24.990;2024-01-30T05:06:43;-0.90;99.90
30063;DHT22;16889;67.864;24.990;2024-01-30T05:11:29;-0.90;99.90
30063;DHT22;16889;67.864;24.990;2024-01-30T05:16:15;-0.90;99.90
30063;DHT22;16889;67.864;24.990;2024-01-30T05:21:02;-0.90;99.90
30063;DHT22;16889;67.864;24.990;2024-01-30T05:25:48;-1.00;99.90
30063;DHT22;16889;67.864;24.990;2024-01-30T05:30:34;-0.90;99.90
30063;DHT22;16889;67.864;24.990;2024-01-30T05:35:20;-1.00;99.90
30063;DHT22;16889;67.864;24.990;2024-01-30T05:40:07;-1.00;99.90
30063;DHT22;16889;67.864;24.990;2024-01-30T05:44:53;-1.00;99.90
30063;DHT22;16889;67.864;24.990;2024-01-30T05:49:39;-1.10;99.90
30063;DHT22;16889;67.864;24.990;2024-01-30T05:54:25;-1.10;99.90
30063;DHT22;16889;67.864;24.990;2024-01-30T05:59:11;-1.20;99.90
30063;DHT22;16889;67.864;24.990;2024-01-30T06:03:57;-1.30;99.90
30063;DHT22;16889;67.864;24.990;2024-01-30T06:08:43;-1.30;99.90
30063;DHT22;16889;67.864;24.990;2024-01-30T06:13:29;-1.30;99.90
30063;DHT22;16889;67.864;24.990;2024-01-30T06:18:17;-1.30;99.90
30063;DHT22;16889;67.864;24.990;2024-01-30T06:23:03;-1.20;99.90
30063;DHT22;16889;67.864;24.990;2024-01-30T06:27:49;-1.20;99.90
30063;DHT22;16889;67.864;24.990;2024-01-30T06:32:35;-1.20;99.90
30063;DHT22;16889;67.864;24.990;2024-01-30T06:37:21;-1.10;99.90
30063;DHT22;16889;67.864;24.990;2024-01-30T06:42:07;-1.20;99.90
30063;DHT22;16889;67.864;24.990;2024-01-30T06:46:53;-1.10;99.90
30063;DHT22;16889;67.864;24.990;2024-01-30T06:51:39;-1.10;99.90
30063;DHT22;16889;67.864;24.990;2024-01-30T06:56:25;-1.10;99.90
30063;DHT22;16889;67.864;24.990;2024-01-30T07:01:11;-1.00;99.90
30063;DHT22;16889;67.864;24.990;2024-01-30T07:05:58;-1.00;99.90
30063;DHT22;16889;67.864;24.990;2024-01-30T07:10:44;-0.90;99.90
30063;DHT22;16889;67.864;24.990;2024-01-30T07:15:30;-0.90;99.90
30063;DHT22;16889;67.864;24.990;2024-01-30T07:20:16;-1.00;99.90
30063;DHT22;16889;67.864;24.990;2024-01-30T07:25:02;-0.90;99.90
30063;DHT22;16889;67.864;24.990;2024-01-30T07:29:49;-0.90;99.90
30063;DHT22;16889;67.864;24.990;2024-01-30T07:34:35;-0.90;99.90
30063;DHT22;16889;67.864;24.990;2024-01-30T07:39:21;-0.90;99.90
30063;DHT22;16889;67.864;24.990;2024-01-30T07:44:07;-0.90;99.90
30063;DHT22;16889;67.864;24.990;2024-01-30T07:48:53;-0.90;99.90
30063;DHT22;16889;67.864;24.990;2024-01-30T07:53:41;-1.00;99.90
30063;DHT22;16889;67.864;24.990;2024-01-30T07:58:27;-1.10;99.90
30063;DHT22;16889;67.864;24.990;2024-01-30T08:03:13;-1.10;99.90
30063;DHT22;16889;67.864;24.990;2024-01-30T08:08:02;-1.10;99.90
30063;DHT22;16889;67.864;24.990;2024-01-30T08:12:48;-1.10;99.90
30063;DHT22;16889;67.864;24.990;2024-01-30T08:17:34;-1.00;99.90
30063;DHT22;16889;67.864;24.990;2024-01-30T08:22:20;-1.00;99.90
30063;DHT22;16889;67.864;24.990;2024-01-30T08:27:07;-1.00;99.90
30063;DHT22;16889;67.864;24.990;2024-01-30T08:31:55;-1.00;99.90
30063;DHT22;16889;67.864;24.990;2024-01-30T08:36:41;-1.00;99.90
30063;DHT22;16889;67.864;24.990;2024-01-30T08:41:27;-1.00;99.90
30063;DHT22;16889;67.864;24.990;2024-01-30T08:46:13;-1.00;99.90
30063;DHT22;16889;67.864;24.990;2024-01-30T08:51:02;-1.00;99.90
30063;DHT22;16889;67.864;24.990;2024-01-30T08:55:48;-0.80;99.90
30063;DHT22;16889;67.864;24.990;2024-01-30T09:00:34;-0.70;99.90
30063;DHT22;16889;67.864;24.990;2024-01-30T09:05:20;-0.60;99.90
30063;DHT22;16889;67.864;24.990;2024-01-30T09:10:07;-0.40;99.90
30063;DHT22;16889;67.864;24.990;2024-01-30T09:14:53;-0.40;99.90
30063;DHT22;16889;67.864;24.990;2024-01-30T09:19:39;-0.30;99.90
30063;DHT22;16889;67.864;24.990;2024-01-30T09:24:26;-0.20;99.90
30063;DHT22;16889;67.864;24.990;2024-01-30T09:29:12;-0.20;99.90
30063;DHT22;16889;67.864;24.990;2024-01-30T09:33:58;-0.30;99.90
30063;DHT22;16889;67.864;24.990;2024-01-30T09:38:44;-0.30;99.90
30063;DHT22;16889;67.864;24.990;2024-01-30T09:43:33;-0.30;99.90
30063;DHT22;16889;67.864;24.990;2024-01-30T09:48:20;-0.30;99.90
30063;DHT22;16889;67.864;24.990;2024-01-30T09:53:08;-0.30;99.90
30063;DHT22;16889;67.864;24.990;2024-01-30T09:57:54;-0.40;99.90
30063;DHT22;16889;67.864;24.990;2024-01-30T10:02:40;-0.50;99.90
30063;DHT22;16889;67.864;24.990;2024-01-30T10:07:27;-0.50;99.90
30063;DHT22;16889;67.864;24.990;2024-01-30T10:12:13;-0.60;99.90
30063;DHT22;16889;67.864;24.990;2024-01-30T10:16:59;-0.50;99.90
30063;DHT22;16889;67.864;24.990;2024-01-30T10:21:46;-0.60;99.90
30063;DHT22;16889;67.864;24.990;2024-01-30T10:26:32;-0.60;99.90
30063;DHT22;16889;67.864;24.990;2024-01-30T10:31:19;-0.50;99.90
30063;DHT22;16889;67.864;24.990;2024-01-30T10:36:06;-0.40;99.90
30063;DHT22;16889;67.864;24.990;2024-01-30T10:40:56;-0.30;99.90
30063;DHT22;16889;67.864;24.990;2024-01-30T10:45:44;-0.20;99.90
30063;DHT22;16889;67.864;24.990;2024-01-30T10:50:33;-0.10;99.90
30063;DHT22;16889;67.864;24.990;2024-01-30T10:55:22;0.20;99.90
30063;DHT22;16889;67.864;24.990;2024-01-30T11:00:11;0.40;99.90
30063;DHT22;16889;67.864;24.990;2024-01-30T11:04:59;0.60;99.90
30063;DHT22;16889;67.864;24.990;2024-01-30T11:14:44;0.90;99.90
30063;DHT22;16889;67.864;24.990;2024-01-30T11:19:31;0.90;99.90
30063;DHT22;16889;67.864;24.990;2024-01-30T11:24:19;0.90;99.90
30063;DHT22;16889;67.864;24.990;2024-01-30T11:29:07;1.00;99.90
30063;DHT22;16889;67.864;24.990;2024-01-30T11:33:53;1.10;99.90
30063;DHT22;16889;67.864;24.990;2024-01-30T11:38:40;1.30;99.90
30063;DHT22;16889;67.864;24.990;2024-01-30T11:43:28;1.60;99.90
30063;DHT22;16889;67.864;24.990;2024-01-30T11:48:14;1.70;99.90
30063;DHT22;16889;67.864;24.990;2024-01-30T11:53:01;1.90;99.90
30063;DHT22;16889;67.864;24.990;2024-01-30T11:57:47;2.00;99.90
30063;DHT22;16889;67.864;24.990;2024-01-30T12:02:33;2.00;99.90
30063;DHT22;16889;67.864;24.990;2024-01-30T12:07:19;2.00;99.90
30063;DHT22;16889;67.864;24.990;2024-01-30T12:12:06;2.00;99.90
30063;DHT22;16889;67.864;24.990;2024-01-30T12:16:52;2.10;99.90
30063;DHT22;16889;67.864;24.990;2024-01-30T12:21:38;2.20;99.90
30063;DHT22;16889;67.864;24.990;2024-01-30T12:26:25;2.20;99.90
30063;DHT22;16889;67.864;24.990;2024-01-30T12:31:14;2.30;99.90
30063;DHT22;16889;67.864;24.990;2024-01-30T12:36:03;2.40;99.90
30063;DHT22;16889;67.864;24.990;2024-01-30T12:40:56;2.60;99.90
30063;DHT22;16889;67.864;24.990;2024-01-30T12:45:43;2.60;99.90
30063;DHT22;16889;67.864;24.990;2024-01-30T12:50:29;2.60;99.90
30063;DHT22;16889;67.864;24.990;2024-01-30T12:55:16;2.70;99.90
30063;DHT22;16889;67.864;24.990;2024-01-30T13:00:02;2.70;99.90
30063;DHT22;16889;67.864;24.990;2024-01-30T13:04:48;2.80;99.90
30063;DHT22;16889;67.864;24.990;2024-01-30T13:09:34;2.80;99.90
30063;DHT22;16889;67.864;24.990;2024-01-30T13:14:20;2.90;99.90
30063;DHT22;16889;67.864;24.990;2024-01-30T13:19:06;2.90;99.90
30063;DHT22;16889;67.864;24.990;2024-01-30T13:23:52;2.90;99.90
30063;DHT22;16889;67.864;24.990;2024-01-30T13:28:39;2.90;99.90
30063;DHT22;16889;67.864;24.990;2024-01-30T13:33:26;3.00;99.90
30063;DHT22;16889;67.864;24.990;2024-01-30T13:38:12;3.00;99.90
30063;DHT22;16889;67.864;24.990;2024-01-30T13:42:59;3.00;99.90
30063;DHT22;16889;67.864;24.990;2024-01-30T13:47:45;2.80;99.90
30063;DHT22;16889;67.864;24.990;2024-01-30T13:52:31;2.90;99.90
30063;DHT22;16889;67.864;24.990;2024-01-30T13:57:17;2.80;99.90
30063;DHT22;16889;67.864;24.990;2024-01-30T14:02:03;2.90;99.90
30063;DHT22;16889;67.864;24.990;2024-01-30T14:06:49;2.90;99.90
30063;DHT22;16889;67.864;24.990;2024-01-30T14:11:35;3.00;99.90
30063;DHT22;16889;67.864;24.990;2024-01-30T14:16:21;3.10;99.90
30063;DHT22;16889;67.864;24.990;2024-01-30T14:21:07;3.10;99.90
30063;DHT22;16889;67.864;24.990;2024-01-30T14:25:53;3.10;99.90
30063;DHT22;16889;67.864;24.990;2024-01-30T14:30:39;3.10;99.90
30063;DHT22;16889;67.864;24.990;2024-01-30T14:35:25;3.10;99.90
30063;DHT22;16889;67.864;24.990;2024-01-30T14:40:11;3.10;99.90
30063;DHT22;16889;67.864;24.990;2024-01-30T14:44:57;3.10;99.90
30063;DHT22;16889;67.864;24.990;2024-01-30T14:49:44;3.20;99.90
30063;DHT22;16889;67.864;24.990;2024-01-30T14:54:30;3.10;99.90
30063;DHT22;16889;67.864;24.990;2024-01-30T14:59:16;3.20;99.90
30063;DHT22;16889;67.864;24.990;2024-01-30T15:04:02;3.20;99.90
30063;DHT22;16889;67.864;24.990;2024-01-30T15:08:48;3.20;99.90
30063;DHT22;16889;67.864;24.990;2024-01-30T15:13:34;3.10;99.90
30063;DHT22;16889;67.864;24.990;2024-01-30T15:18:20;3.20;99.90
30063;DHT22;16889;67.864;24.990;2024-01-30T15:23:06;3.30;99.90
30063;DHT22;16889;67.864;24.990;2024-01-30T15:27:52;3.40;99.90
30063;DHT22;16889;67.864;24.990;2024-01-30T15:32:37;3.40;99.90
30063;DHT22;16889;67.864;24.990;2024-01-30T15:37:24;3.50;99.90
30063;DHT22;16889;67.864;24.990;2024-01-30T15:42:10;3.60;99.90
30063;DHT22;16889;67.864;24.990;2024-01-30T15:46:56;3.50;99.90
30063;DHT22;16889;67.864;24.990;2024-01-30T15:51:42;3.50;99.90
30063;DHT22;16889;67.864;24.990;2024-01-30T15:56:28;3.40;99.90
30063;DHT22;16889;67.864;24.990;2024-01-30T16:01:15;3.40;99.90
30063;DHT22;16889;67.864;24.990;2024-01-30T16:06:01;3.40;99.90
30063;DHT22;16889;67.864;24.990;2024-01-30T16:10:47;3.40;99.90
30063;DHT22;16889;67.864;24.990;2024-01-30T16:15:33;3.40;99.90
30063;DHT22;16889;67.864;24.990;2024-01-30T16:20:19;3.40;99.90
30063;DHT22;16889;67.864;24.990;2024-01-30T16:25:05;3.30;99.90
30063;DHT22;16889;67.864;24.990;2024-01-30T16:29:51;3.30;99.90
30063;DHT22;16889;67.864;24.990;2024-01-30T16:34:37;3.30;99.90
30063;DHT22;16889;67.864;24.990;2024-01-30T16:39:23;3.20;99.90
30063;DHT22;16889;67.864;24.990;2024-01-30T16:44:09;3.30;99.90
30063;DHT22;16889;67.864;24.990;2024-01-30T16:48:55;3.40;99.90
30063;DHT22;16889;67.864;24.990;2024-01-30T16:53:41;3.40;99.90
30063;DHT22;16889;67.864;24.990;2024-01-30T16:58:28;3.30;99.90
30063;DHT22;16889;67.864;24.990;2024-01-30T17:03:14;3.30;99.90
30063;DHT22;16889;67.864;24.990;2024-01-30T17:08:01;3.30;99.90
30063;DHT22;16889;67.864;24.990;2024-01-30T17:12:47;3.30;99.90
30063;DHT22;16889;67.864;24.990;2024-01-30T17:17:32;3.30;99.90
30063;DHT22;16889;67.864;24.990;2024-01-30T17:22:18;3.30;99.90
30063;DHT22;16889;67.864;24.990;2024-01-30T17:27:06;3.20;99.90
30063;DHT22;16889;67.864;24.990;2024-01-30T17:31:52;3.20;99.90
30063;DHT22;16889;67.864;24.990;2024-01-30T17:36:38;3.10;99.90
30063;DHT22;16889;67.864;24.990;2024-01-30T17:41:24;3.00;99.90
30063;DHT22;16889;67.864;24.990;2024-01-30T17:46:10;2.90;99.90
30063;DHT22;16889;67.864;24.990;2024-01-30T17:50:56;3.00;99.90
30063;DHT22;16889;67.864;24.990;2024-01-30T17:55:43;3.00;99.90
30063;DHT22;16889;67.864;24.990;2024-01-30T18:00:29;3.00;99.90
30063;DHT22;16889;67.864;24.990;2024-01-30T18:05:15;3.10;99.90
30063;DHT22;16889;67.864;24.990;2024-01-30T18:10:01;3.20;99.90
30063;DHT22;16889;67.864;24.990;2024-01-30T18:14:47;3.10;99.90
30063;DHT22;16889;67.864;24.990;2024-01-30T18:19:33;3.10;99.90
30063;DHT22;16889;67.864;24.990;2024-01-30T18:24:19;3.10;99.90
30063;DHT22;16889;67.864;24.990;2024-01-30T18:29:07;3.00;99.90
30063;DHT22;16889;67.864;24.990;2024-01-30T18:33:53;2.90;99.90
30063;DHT22;16889;67.864;24.990;2024-01-30T18:38:42;2.80;99.90
30063;DHT22;16889;67.864;24.990;2024-01-30T18:43:28;2.80;99.90
30063;DHT22;16889;67.864;24.990;2024-01-30T18:48:14;2.80;99.90
30063;DHT22;16889;67.864;24.990;2024-01-30T18:53:01;2.80;99.90
30063;DHT22;16889;67.864;24.990;2024-01-30T18:57:48;2.80;99.90
30063;DHT22;16889;67.864;24.990;2024-01-30T19:02:34;2.80;99.90
30063;DHT22;16889;67.864;24.990;2024-01-30T19:07:20;2.80;99.90
30063;DHT22;16889;67.864;24.990;2024-01-30T19:12:07;2.80;99.90
30063;DHT22;16889;67.864;24.990;2024-01-30T19:16:53;2.90;99.90
30063;DHT22;16889;67.864;24.990;2024-01-30T19:21:39;2.90;99.90
30063;DHT22;16889;67.864;24.990;2024-01-30T19:26:25;2.90;99.90
30063;DHT22;16889;67.864;24.990;2024-01-30T19:31:11;2.90;99.90
30063;DHT22;16889;67.864;24.990;2024-01-30T19:36:00;2.90;99.90
30063;DHT22;16889;67.864;24.990;2024-01-30T19:40:46;2.90;99.90
30063;DHT22;16889;67.864;24.990;2024-01-30T19:45:32;2.80;99.90
30063;DHT22;16889;67.864;24.990;2024-01-30T19:50:18;2.80;99.90
30063;DHT22;16889;67.864;24.990;2024-01-30T19:55:05;2.80;99.90
30063;DHT22;16889;67.864;24.990;2024-01-30T19:59:51;2.70;99.90
30063;DHT22;16889;67.864;24.990;2024-01-30T20:04:37;2.70;99.90
30063;DHT22;16889;67.864;24.990;2024-01-30T20:09:23;2.60;99.90
30063;DHT22;16889;67.864;24.990;2024-01-30T20:14:09;2.60;99.90
30063;DHT22;16889;67.864;24.990;2024-01-30T20:18:55;2.70;99.90
30063;DHT22;16889;67.864;24.990;2024-01-30T20:23:41;2.60;99.90
30063;DHT22;16889;67.864;24.990;2024-01-30T20:28:28;2.60;99.90
30063;DHT22;16889;67.864;24.990;2024-01-30T20:33:13;2.50;99.90
30063;DHT22;16889;67.864;24.990;2024-01-30T20:38:01;2.30;99.90
30063;DHT22;16889;67.864;24.990;2024-01-30T20:42:47;2.30;99.90
30063;DHT22;16889;67.864;24.990;2024-01-30T20:47:33;2.20;99.90
30063;DHT22;16889;67.864;24.990;2024-01-30T20:52:19;2.20;99.90
30063;DHT22;16889;67.864;24.990;2024-01-30T20:57:05;2.20;99.90
30063;DHT22;16889;67.864;24.990;2024-01-30T21:01:51;2.20;99.90
30063;DHT22;16889;67.864;24.990;2024-01-30T21:06:37;2.00;99.90
30063;DHT22;16889;67.864;24.990;2024-01-30T21:11:23;1.90;99.90
30063;DHT22;16889;67.864;24.990;2024-01-30T21:16:09;1.90;99.90
30063;DHT22;16889;67.864;24.990;2024-01-30T21:20:56;1.90;99.90
30063;DHT22;16889;67.864;24.990;2024-01-30T21:25:43;1.90;99.90
30063;DHT22;16889;67.864;24.990;2024-01-30T21:30:29;1.90;99.90
30063;DHT22;16889;67.864;24.990;2024-01-30T21:35:14;1.80;99.90
30063;DHT22;16889;67.864;24.990;2024-01-30T21:40:01;1.80;99.90
30063;DHT22;16889;67.864;24.990;2024-01-30T21:44:49;1.80;99.90
30063;DHT22;16889;67.864;24.990;2024-01-30T21:49:38;1.80;99.90
30063;DHT22;16889;67.864;24.990;2024-01-30T21:54:24;1.70;99.90
30063;DHT22;16889;67.864;24.990;2024-01-30T21:59:11;1.70;99.90
30063;DHT22;16889;67.864;24.990;2024-01-30T22:03:57;1.70;99.90
30063;DHT22;16889;67.864;24.990;2024-01-30T22:08:45;1.70;99.90
30063;DHT22;16889;67.864;24.990;2024-01-30T22:13:32;1.60;99.90
30063;DHT22;16889;67.864;24.990;2024-01-30T22:18:18;1.60;99.90
30063;DHT22;16889;67.864;24.990;2024-01-30T22:23:04;1.60;99.90
30063;DHT22;16889;67.864;24.990;2024-01-30T22:27:50;1.60;99.90
30063;DHT22;16889;67.864;24.990;2024-01-30T22:32:36;1.60;99.90
30063;DHT22;16889;67.864;24.990;2024-01-30T22:37:22;1.50;99.90
30063;DHT22;16889;67.864;24.990;2024-01-30T22:42:08;1.40;99.90
30063;DHT22;16889;67.864;24.990;2024-01-30T22:46:54;1.30;99.90
30063;DHT22;16889;67.864;24.990;2024-01-30T22:51:40;1.30;99.90
30063;DHT22;16889;67.864;24.990;2024-01-30T22:56:26;1.20;99.90
30063;DHT22;16889;67.864;24.990;2024-01-30T23:01:12;1.20;99.90
30063;DHT22;16889;67.864;24.990;2024-01-30T23:05:58;1.10;99.90
30063;DHT22;16889;67.864;24.990;2024-01-30T23:10:44;1.10;99.90
30063;DHT22;16889;67.864;24.990;2024-01-30T23:15:30;1.10;99.90
30063;DHT22;16889;67.864;24.990;2024-01-30T23:20:16;1.00;99.90
30063;DHT22;16889;67.864;24.990;2024-01-30T23:25:04;1.00;99.90
30063;DHT22;16889;67.864;24.990;2024-01-30T23:29:50;1.00;99.90
30063;DHT22;16889;67.864;24.990;2024-01-30T23:34:36;0.90;99.90
30063;DHT22;16889;67.864;24.990;2024-01-30T23:39:22;0.90;99.90
30063;DHT22;16889;67.864;24.990;2024-01-30T23:44:08;0.90;99.90
30063;DHT22;16889;67.864;24.990;2024-01-30T23:48:54;0.90;99.90
30063;DHT22;16889;67.864;24.990;2024-01-30T23:53:40;0.80;99.90
30063;DHT22;16889;67.864;24.990;2024-01-30T23:58:26;0.80;99.90
